createdAt,value
2018-03-09T00:01:43.009Z,13.13
2018-03-09T00:04:10.573Z,11.40
2018-03-09T00:06:38.098Z,14.83
2018-03-09T00:09:06.425Z,8.40
2018-03-09T00:11:33.950Z,7.70
2018-03-09T00:14:02.273Z,10.10
2018-03-09T00:16:29.803Z,6.00
2018-03-09T00:18:57.354Z,8.70
2018-03-09T00:21:24.884Z,5.77
2018-03-09T00:23:52.425Z,6.97
2018-03-09T00:26:19.953Z,6.00
2018-03-09T00:28:47.487Z,5.53
2018-03-09T00:31:15.828Z,5.53
2018-03-09T00:33:43.361Z,4.90
2018-03-09T00:36:10.918Z,5.40
2018-03-09T00:38:38.445Z,5.53
2018-03-09T00:41:06.759Z,5.30
2018-03-09T00:43:34.294Z,5.17
2018-03-09T00:46:01.842Z,7.83
2018-03-09T00:48:30.251Z,7.30
2018-03-09T00:51:09.594Z,5.60
2018-03-09T00:53:37.120Z,5.97
2018-03-09T00:56:05.431Z,9.70
2018-03-09T00:58:32.961Z,8.90
2018-03-09T01:01:00.522Z,10.33
2018-03-09T01:03:28.061Z,5.37
2018-03-09T01:05:56.386Z,5.67
2018-03-09T01:08:24.243Z,6.67
2018-03-09T01:10:51.843Z,9.97
2018-03-09T01:13:19.370Z,7.80
2018-03-09T01:15:46.937Z,6.17
2018-03-09T01:18:14.529Z,6.90
2018-03-09T01:20:42.123Z,11.70
2018-03-09T01:23:09.658Z,7.03
2018-03-09T01:25:37.527Z,11.63
2018-03-09T01:28:05.056Z,5.63
2018-03-09T01:30:32.619Z,5.80
2018-03-09T01:33:00.906Z,6.03
2018-03-09T01:35:28.453Z,8.27
2018-03-09T01:37:55.979Z,7.70
2018-03-09T01:40:23.532Z,7.40
2018-03-09T01:42:51.265Z,7.17
2018-03-09T01:45:18.835Z,5.27
2018-03-09T01:47:47.126Z,9.30
2018-03-09T01:50:14.679Z,7.90
2018-03-09T01:52:42.976Z,9.30
2018-03-09T01:55:10.535Z,10.43
2018-03-09T01:57:38.066Z,7.57
2018-03-09T02:00:06.390Z,11.90
2018-03-09T02:02:39.551Z,9.30
2018-03-09T02:05:07.111Z,8.53
2018-03-09T02:07:34.642Z,8.20
2018-03-09T02:10:02.198Z,8.60
2018-03-09T02:12:29.730Z,7.70
2018-03-09T02:14:57.297Z,9.57
2018-03-09T02:17:24.835Z,7.93
2018-03-09T02:19:52.401Z,6.83
2018-03-09T02:22:19.926Z,7.10
2018-03-09T02:24:47.487Z,9.57
2018-03-09T02:27:15.006Z,8.30
2018-03-09T02:29:42.558Z,8.83
2018-03-09T02:32:10.106Z,7.50
2018-03-09T02:34:37.654Z,7.87
2018-03-09T02:37:05.183Z,10.80
2018-03-09T02:39:32.900Z,15.00
2018-03-09T02:42:00.434Z,8.00
2018-03-09T02:44:28.021Z,11.80
2018-03-09T02:46:55.643Z,6.93
2018-03-09T02:49:23.180Z,7.07
2018-03-09T02:51:51.504Z,8.00
2018-03-09T02:54:19.027Z,8.60
2018-03-09T02:56:46.596Z,6.77
2018-03-09T02:59:14.162Z,9.33
2018-03-09T03:01:41.710Z,11.13
2018-03-09T03:04:09.246Z,11.33
2018-03-09T03:06:37.570Z,9.23
2018-03-09T03:09:05.104Z,9.20
2018-03-09T03:11:32.658Z,13.20
2018-03-09T03:14:00.955Z,7.63
2018-03-09T03:16:28.498Z,6.83
2018-03-09T03:18:56.959Z,6.60
2018-03-09T03:21:25.283Z,8.00
2018-03-09T03:23:52.809Z,9.67
2018-03-09T03:26:21.121Z,14.73
2018-03-09T03:28:48.651Z,10.40
2018-03-09T03:31:16.959Z,8.43
2018-03-09T03:33:44.487Z,8.57
2018-03-09T03:36:12.824Z,8.97
2018-03-09T03:38:40.355Z,9.83
2018-03-09T03:41:07.902Z,8.53
2018-03-09T03:43:35.430Z,8.87
2018-03-09T03:46:03.748Z,10.03
2018-03-09T03:48:31.412Z,11.77
2018-03-09T03:50:58.953Z,10.00
2018-03-09T03:53:26.478Z,9.23
2018-03-09T03:55:54.021Z,9.80
2018-03-09T03:58:21.543Z,9.73
2018-03-09T04:00:49.438Z,12.17
2018-03-09T04:03:16.962Z,7.67
2018-03-09T04:05:44.519Z,10.10
2018-03-09T04:08:12.042Z,8.43
2018-03-09T04:10:39.599Z,10.50
2018-03-09T04:13:07.132Z,10.20
2018-03-09T04:15:34.692Z,13.63
2018-03-09T04:18:02.227Z,10.20
2018-03-09T04:20:29.782Z,20.10
2018-03-09T04:25:57.150Z,7.80
2018-03-09T04:28:24.683Z,9.47
2018-03-09T04:30:53.009Z,12.07
2018-03-09T04:33:20.530Z,8.23
2018-03-09T04:35:48.854Z,14.80
2018-03-09T04:38:16.379Z,8.23
2018-03-09T04:40:43.926Z,11.70
2018-03-09T04:43:12.220Z,9.13
2018-03-09T04:45:39.778Z,7.93
2018-03-09T04:48:07.307Z,7.13
2018-03-09T04:50:34.855Z,7.87
2018-03-09T04:53:02.392Z,9.27
2018-03-09T04:55:29.942Z,7.77
2018-03-09T04:57:57.467Z,8.90
2018-03-09T05:00:25.019Z,9.00
2018-03-09T05:02:53.323Z,10.73
2018-03-09T05:05:20.875Z,8.90
2018-03-09T05:07:48.397Z,9.67
2018-03-09T05:10:15.970Z,12.40
2018-03-09T05:12:44.257Z,12.50
2018-03-09T05:15:12.542Z,7.20
2018-03-09T05:17:40.850Z,8.30
2018-03-09T05:20:08.370Z,7.33
2018-03-09T05:22:36.694Z,10.77
2018-03-09T05:25:04.219Z,8.20
2018-03-09T05:27:31.778Z,9.73
2018-03-09T05:29:59.310Z,10.00
2018-03-09T05:32:26.862Z,10.50
2018-03-09T05:34:54.394Z,12.03
2018-03-09T05:37:21.946Z,14.10
2018-03-09T05:39:49.475Z,9.77
2018-03-09T05:42:17.027Z,9.40
2018-03-09T05:44:44.569Z,13.73
2018-03-09T05:47:12.886Z,11.80
2018-03-09T05:49:40.422Z,11.60
2018-03-09T05:52:08.751Z,9.43
2018-03-09T05:54:36.277Z,9.83
2018-03-09T05:57:03.847Z,12.10
2018-03-09T05:59:31.378Z,10.73
2018-03-09T06:01:59.679Z,13.30
2018-03-09T06:04:27.255Z,13.43
2018-03-09T06:06:54.805Z,12.80
2018-03-09T06:09:22.362Z,13.20
2018-03-09T06:11:49.930Z,16.37
2018-03-09T06:14:17.495Z,12.37
2018-03-09T06:16:45.069Z,10.23
2018-03-09T06:19:12.610Z,9.93
2018-03-09T06:21:40.131Z,12.70
2018-03-09T06:24:08.447Z,14.70
2018-03-09T06:26:36.007Z,11.20
2018-03-09T06:29:03.570Z,13.30
2018-03-09T06:31:31.098Z,13.30
2018-03-09T06:33:58.663Z,11.03
2018-03-09T06:57:11.560Z,13.37
2018-03-09T06:59:39.094Z,23.47
2018-03-09T07:02:06.646Z,16.87
2018-03-09T07:04:34.177Z,18.37
2018-03-09T07:07:02.491Z,13.97
2018-03-09T07:09:30.022Z,13.77
2018-03-09T07:11:58.339Z,13.50
2018-03-09T07:14:25.875Z,18.90
2018-03-09T07:16:53.427Z,17.27
2018-03-09T07:19:21.718Z,16.20
2018-03-09T07:21:49.276Z,18.90
2018-03-09T07:24:16.804Z,16.40
2018-03-09T07:26:45.128Z,14.37
2018-03-09T07:29:12.655Z,11.80
2018-03-09T07:31:40.974Z,16.13
2018-03-09T07:34:08.512Z,15.90
2018-03-09T07:36:36.070Z,17.87
2018-03-09T07:39:03.645Z,14.77
2018-03-09T07:41:31.187Z,15.07
2018-03-09T07:43:58.759Z,11.20
2018-03-09T07:46:26.338Z,14.33
2018-03-09T07:48:53.875Z,17.40
2018-03-09T07:51:21.439Z,12.17
2018-03-09T07:53:48.981Z,13.20
2018-03-09T07:56:16.610Z,14.93
2018-03-09T07:58:44.234Z,17.13
2018-03-09T08:01:11.862Z,14.37
2018-03-09T08:03:39.475Z,15.57
2018-03-09T08:06:07.121Z,14.90
2018-03-09T08:08:34.733Z,14.60
2018-03-09T08:11:03.105Z,14.37
2018-03-09T08:13:31.541Z,13.37
2018-03-09T08:15:59.145Z,16.20
2018-03-09T08:18:27.549Z,16.60
2018-03-09T08:20:55.173Z,15.50
2018-03-09T08:23:22.806Z,14.73
2018-03-09T08:25:50.446Z,15.30
2018-03-09T08:28:18.065Z,12.87
2018-03-09T08:30:45.665Z,18.00
2018-03-09T08:33:13.289Z,17.23
2018-03-09T08:35:40.902Z,16.07
2018-03-09T08:38:08.538Z,18.57
2018-03-09T08:40:36.142Z,14.50
2018-03-09T08:43:03.772Z,17.83
2018-03-09T08:45:31.409Z,24.13
2018-03-09T08:47:59.807Z,18.27
2018-03-09T08:50:27.412Z,21.03
2018-03-09T08:52:55.137Z,22.50
2018-03-09T08:55:22.704Z,35.87
2018-03-09T08:57:50.329Z,15.73
2018-03-09T09:00:18.696Z,18.70
2018-03-09T09:02:46.323Z,17.87
2018-03-09T09:05:13.929Z,16.30
2018-03-09T09:07:42.320Z,17.77
2018-03-09T09:10:10.697Z,17.70
2018-03-09T09:12:39.088Z,21.40
2018-03-09T09:15:06.698Z,17.67
2018-03-09T09:17:34.334Z,17.30
2018-03-09T09:20:01.937Z,13.63
2018-03-09T09:22:29.573Z,14.80
2018-03-09T09:24:57.177Z,20.57
2018-03-09T09:27:25.581Z,22.30
2018-03-09T09:29:53.186Z,15.83
2018-03-09T09:32:20.820Z,16.67
2018-03-09T09:34:48.429Z,21.13
2018-03-09T09:37:16.057Z,12.20
2018-03-09T09:39:43.660Z,13.63
2018-03-09T09:42:12.057Z,16.40
2018-03-09T09:44:40.425Z,18.10
2018-03-09T09:47:08.824Z,14.40
2018-03-09T09:49:36.432Z,12.87
2018-03-09T09:52:04.071Z,13.57
2018-03-09T09:54:31.673Z,14.80
2018-03-09T09:56:59.314Z,15.90
2018-03-09T09:59:27.008Z,14.27
2018-03-09T10:01:54.609Z,12.07
2018-03-09T10:04:22.218Z,14.47
2018-03-09T10:06:49.849Z,14.77
2018-03-09T10:09:17.449Z,20.50
2018-03-09T10:11:45.866Z,15.13
2018-03-09T10:14:13.537Z,14.43
2018-03-09T10:16:41.889Z,18.93
2018-03-09T10:19:09.514Z,15.63
2018-03-09T10:21:37.145Z,17.70
2018-03-09T10:24:05.558Z,12.37
2018-03-09T10:26:33.166Z,12.27
2018-03-09T10:29:00.788Z,14.50
2018-03-09T10:31:28.397Z,15.17
2018-03-09T10:33:56.029Z,14.00
2018-03-09T10:36:24.409Z,14.80
2018-03-09T10:38:52.800Z,15.00
2018-03-09T10:41:20.409Z,16.10
2018-03-09T10:43:48.042Z,18.10
2018-03-09T10:46:15.697Z,15.23
2018-03-09T10:48:44.074Z,17.27
2018-03-09T10:51:11.686Z,13.40
2018-03-09T10:53:39.322Z,15.13
2018-03-09T10:56:06.901Z,15.60
2018-03-09T10:58:34.529Z,15.70
2018-03-09T11:01:02.144Z,17.70
2018-03-09T11:03:29.778Z,14.63
2018-03-09T11:05:57.401Z,17.90
2018-03-09T11:08:25.033Z,19.47
2018-03-09T11:10:53.410Z,17.10
2018-03-09T11:13:21.048Z,15.70
2018-03-09T11:15:48.662Z,15.60
2018-03-09T11:18:16.293Z,12.53
2018-03-09T11:20:43.901Z,18.63
2018-03-09T11:23:11.496Z,12.27
2018-03-09T11:25:39.102Z,15.10
2018-03-09T11:28:06.738Z,18.10
2018-03-09T11:30:34.351Z,15.70
2018-03-09T11:33:01.989Z,17.10
2018-03-09T11:35:29.610Z,14.20
2018-03-09T11:37:57.473Z,17.47
2018-03-09T11:40:25.086Z,18.63
2018-03-09T11:42:52.722Z,20.27
2018-03-09T11:45:21.092Z,14.47
2018-03-09T11:47:48.734Z,13.37
2018-03-09T11:50:16.350Z,12.33
2018-03-09T11:52:43.983Z,10.10
2018-03-09T11:55:12.350Z,9.63
2018-03-09T11:57:39.987Z,14.13
2018-03-09T12:00:07.589Z,12.43
2018-03-09T12:02:35.993Z,11.67
2018-03-09T12:05:03.602Z,12.90
2018-03-09T12:07:31.238Z,12.43
2018-03-09T12:09:58.849Z,14.63
2018-03-09T12:12:27.252Z,16.23
2018-03-09T12:14:54.858Z,9.83
2018-03-09T12:17:22.489Z,14.30
2018-03-09T12:19:50.093Z,14.30
2018-03-09T12:22:17.729Z,13.77
2018-03-09T12:24:45.355Z,20.10
2018-03-09T12:27:12.957Z,14.23
2018-03-09T12:29:40.593Z,13.07
2018-03-09T12:32:08.197Z,9.83
2018-03-09T12:34:35.831Z,10.00
2018-03-09T12:37:03.425Z,11.53
2018-03-09T12:39:31.049Z,8.90
2018-03-09T12:41:58.648Z,11.30
2018-03-09T12:44:26.276Z,13.27
2018-03-09T12:46:53.885Z,11.13
2018-03-09T12:49:22.273Z,10.60
2018-03-09T12:51:50.641Z,11.30
2018-03-09T12:54:19.085Z,12.40
2018-03-09T12:56:46.640Z,10.43
2018-03-09T12:59:14.266Z,14.33
2018-03-09T13:01:41.873Z,16.83
2018-03-09T13:04:09.502Z,10.87
2018-03-09T13:06:37.097Z,15.77
2018-03-09T13:09:05.482Z,12.90
2018-03-09T13:11:40.783Z,12.50
2018-03-09T13:14:14.152Z,14.73
2018-03-09T13:16:48.119Z,18.37
2018-03-09T13:19:15.694Z,15.10
2018-03-09T13:21:43.240Z,10.63
2018-03-09T13:24:10.786Z,20.37
2018-03-09T13:26:38.314Z,21.90
2018-03-09T13:29:06.634Z,14.97
2018-03-09T13:31:34.158Z,12.53
2018-03-09T13:34:01.727Z,9.00
2018-03-09T13:36:29.257Z,19.17
2018-03-09T13:38:57.576Z,9.30
2018-03-09T13:41:25.107Z,9.13
2018-03-09T13:43:52.690Z,13.30
2018-03-09T13:46:20.217Z,11.77
2018-03-09T13:48:48.534Z,12.07
2018-03-09T13:51:16.059Z,9.47
2018-03-09T13:53:43.614Z,12.90
2018-03-09T13:56:11.902Z,15.70
2018-03-09T13:58:40.228Z,11.10
2018-03-09T14:01:07.765Z,9.80
2018-03-09T14:03:35.361Z,12.73
2018-03-09T14:06:02.900Z,15.70
2018-03-09T14:08:30.457Z,12.43
2018-03-09T14:10:57.987Z,11.30
2018-03-09T14:13:25.541Z,12.23
2018-03-09T14:15:53.075Z,21.10
2018-03-09T14:18:20.634Z,11.60
2018-03-09T14:20:48.295Z,14.70
2018-03-09T14:23:16.542Z,16.50
2018-03-09T14:25:44.082Z,14.60
2018-03-09T14:28:11.638Z,13.83
2018-03-09T14:30:39.163Z,11.27
2018-03-09T14:33:07.478Z,15.30
2018-03-09T14:35:35.011Z,13.80
2018-03-09T14:38:02.575Z,14.27
2018-03-09T14:40:30.102Z,11.40
2018-03-09T14:42:57.660Z,13.53
2018-03-09T14:45:25.190Z,14.10
2018-03-09T14:47:52.718Z,11.67
2018-03-09T14:50:20.281Z,12.40
2018-03-09T14:52:47.815Z,13.27
2018-03-09T14:55:16.139Z,14.23
2018-03-09T14:57:43.665Z,15.40
2018-03-09T15:00:11.224Z,12.80
2018-03-09T15:02:39.513Z,16.30
2018-03-09T15:05:07.062Z,15.03
2018-03-09T15:07:34.595Z,11.67
2018-03-09T15:10:02.154Z,19.00
2018-03-09T15:12:29.681Z,13.47
2018-03-09T15:14:57.231Z,13.77
2018-03-09T15:17:24.763Z,14.03
2018-03-09T15:19:52.317Z,11.07
2018-03-09T15:22:20.611Z,20.00
2018-03-09T15:24:48.174Z,12.27
2018-03-09T15:27:15.702Z,13.07
2018-03-09T15:29:44.030Z,15.57
2018-03-09T15:32:12.611Z,16.73
2018-03-09T15:34:40.162Z,15.00
2018-03-09T15:37:07.694Z,10.53
2018-03-09T15:39:36.010Z,11.27
2018-03-09T15:42:03.536Z,11.23
2018-03-09T15:44:31.091Z,13.47
2018-03-09T15:46:58.626Z,15.13
2018-03-09T15:49:26.182Z,20.13
2018-03-09T15:51:53.718Z,26.67
2018-03-09T15:54:21.271Z,16.30
2018-03-09T15:56:48.792Z,19.57
2018-03-09T15:59:16.337Z,14.90
2018-03-09T16:01:44.630Z,15.33
2018-03-09T16:04:12.185Z,16.50
2018-03-09T16:06:40.482Z,17.83
2018-03-09T16:09:08.038Z,14.33
2018-03-09T16:11:35.568Z,13.03
2018-03-09T16:14:03.887Z,12.53
2018-03-09T16:16:31.434Z,13.00
2018-03-09T16:18:58.988Z,16.13
2018-03-09T16:21:26.525Z,15.10
2018-03-09T16:23:54.834Z,15.60
2018-03-09T16:26:22.366Z,15.00
2018-03-09T16:28:50.691Z,14.70
2018-03-09T16:31:18.222Z,15.83
2018-03-09T16:33:45.811Z,15.83
2018-03-09T16:36:13.338Z,17.97
2018-03-09T16:38:40.886Z,16.63
2018-03-09T16:41:09.182Z,13.90
2018-03-09T16:43:36.734Z,16.07
2018-03-09T16:46:04.266Z,23.17
2018-03-09T16:48:32.594Z,16.47
2018-03-09T16:51:00.127Z,16.00
2018-03-09T16:53:27.682Z,16.33
2018-03-09T16:55:55.977Z,17.53
2018-03-09T16:58:23.508Z,29.13
2018-03-09T17:00:51.838Z,16.43
2018-03-09T17:03:19.387Z,17.00
2018-03-09T17:05:46.946Z,22.80
2018-03-09T17:08:14.486Z,18.80
2018-03-09T17:10:42.044Z,23.73
2018-03-09T17:13:09.574Z,17.47
2018-03-09T17:15:37.138Z,21.30
2018-03-09T17:18:05.451Z,18.77
2018-03-09T17:20:33.010Z,25.60
2018-03-09T17:23:00.550Z,23.63
2018-03-09T17:25:28.869Z,25.00
2018-03-09T17:27:56.408Z,22.17
2018-03-09T17:30:23.970Z,20.03
2018-03-09T17:32:51.504Z,24.57
2018-03-09T17:35:19.831Z,19.30
2018-03-09T17:37:48.139Z,18.87
2018-03-09T17:40:15.703Z,18.37
2018-03-09T17:42:43.234Z,17.80
2018-03-09T17:45:10.798Z,20.50
2018-03-09T17:47:38.332Z,21.40
2018-03-09T17:50:05.882Z,23.13
2018-03-09T17:52:34.187Z,20.90
2018-03-09T17:55:02.515Z,18.70
2018-03-09T17:57:30.810Z,24.80
2018-03-09T17:59:58.362Z,16.13
2018-03-09T18:02:25.890Z,19.20
2018-03-09T18:04:53.442Z,26.53
2018-03-09T18:07:21.010Z,18.07
2018-03-09T18:09:48.568Z,20.87
2018-03-09T18:12:16.098Z,22.60
2018-03-09T18:14:43.914Z,22.13
2018-03-09T18:17:11.465Z,18.73
2018-03-09T18:19:39.809Z,23.00
2018-03-09T18:22:07.341Z,23.13
2018-03-09T18:24:34.906Z,20.27
2018-03-09T18:27:02.439Z,20.47
2018-03-09T18:32:24.298Z,19.60
2018-03-09T18:34:51.867Z,21.47
2018-03-09T18:37:19.399Z,16.63
2018-03-09T18:39:47.722Z,20.60
2018-03-09T18:42:15.254Z,17.90
2018-03-09T18:44:42.812Z,18.07
2018-03-09T18:47:10.366Z,21.00
2018-03-09T18:49:38.332Z,22.40
2018-03-09T18:52:05.875Z,21.20
2018-03-09T18:54:34.538Z,26.47
2018-03-09T18:57:02.099Z,23.87
2018-03-09T18:59:29.940Z,21.23
2018-03-09T19:01:57.476Z,23.40
2018-03-09T19:04:25.035Z,22.43
2018-03-09T19:06:52.571Z,24.83
2018-03-09T19:09:20.950Z,19.27
2018-03-09T19:11:49.255Z,23.43
2018-03-09T19:14:16.815Z,20.40
2018-03-09T19:16:44.350Z,23.60
2018-03-09T19:19:12.667Z,27.83
2018-03-09T19:21:40.206Z,24.97
2018-03-09T19:24:07.766Z,25.07
2018-03-09T19:26:35.302Z,24.07
2018-03-09T19:29:03.602Z,22.97
2018-03-09T19:31:31.167Z,27.03
2018-03-09T19:33:58.718Z,26.00
2018-03-09T19:36:26.274Z,28.13
2018-03-09T19:38:53.806Z,25.53
2018-03-09T19:41:21.371Z,26.30
2018-03-09T19:43:49.675Z,29.20
2018-03-09T19:46:17.234Z,23.40
2018-03-09T19:48:44.766Z,29.87
2018-03-09T19:51:13.092Z,24.70
2018-03-09T19:53:40.629Z,21.40
2018-03-09T19:56:08.199Z,20.53
2018-03-09T19:58:35.729Z,24.97
2018-03-09T20:01:04.072Z,21.83
2018-03-09T20:03:31.599Z,27.60
2018-03-09T20:05:59.160Z,28.70
2018-03-09T20:08:26.700Z,27.30
2018-03-09T20:10:55.016Z,32.03
2018-03-09T20:13:22.542Z,30.53
2018-03-09T20:15:50.098Z,27.70
2018-03-09T20:18:17.634Z,32.50
2018-03-09T20:20:45.186Z,32.30
2018-03-09T20:23:12.719Z,26.73
2018-03-09T20:25:40.280Z,30.30
2018-03-09T20:28:07.815Z,31.90
2018-03-09T20:30:35.370Z,28.00
2018-03-09T20:33:02.901Z,26.30
2018-03-09T20:35:31.239Z,26.40
2018-03-09T20:37:58.851Z,23.97
2018-03-09T20:40:26.410Z,26.20
2018-03-09T20:42:54.715Z,19.27
2018-03-09T20:45:22.266Z,22.13
2018-03-09T20:47:49.802Z,21.47
2018-03-09T20:50:18.134Z,20.93
2018-03-09T20:52:45.681Z,23.40
2018-03-09T20:55:13.257Z,21.47
2018-03-09T20:57:40.790Z,22.80
2018-03-09T21:00:08.342Z,22.90
2018-03-09T21:02:35.875Z,23.50
2018-03-09T21:05:04.198Z,24.30
2018-03-09T21:07:31.792Z,22.63
2018-03-09T21:10:00.138Z,21.63
2018-03-09T21:12:27.671Z,24.93
2018-03-09T21:14:55.248Z,27.70
2018-03-09T21:17:22.781Z,23.80
2018-03-09T21:19:50.373Z,21.27
2018-03-09T21:22:17.907Z,21.73
2018-03-09T21:24:45.482Z,32.40
2018-03-09T21:27:13.028Z,25.30
2018-03-09T21:29:40.591Z,24.57
2018-03-09T21:32:08.139Z,24.30
2018-03-09T21:34:36.451Z,24.37
2018-03-09T21:37:04.020Z,22.13
2018-03-09T21:39:31.589Z,24.10
2018-03-09T21:41:59.140Z,30.33
2018-03-09T21:44:27.167Z,26.10
2018-03-09T21:46:54.734Z,20.80
2018-03-09T21:49:22.274Z,20.57
2018-03-09T21:51:50.607Z,20.90
2018-03-09T21:54:18.138Z,25.67
2018-03-09T21:56:45.690Z,21.20
2018-03-09T21:59:13.231Z,22.97
2018-03-09T22:01:41.565Z,16.60
2018-03-09T22:04:09.090Z,26.50
2018-03-09T22:06:36.682Z,21.43
2018-03-09T22:09:04.484Z,16.97
2018-03-09T22:11:32.050Z,21.50
2018-03-09T22:14:00.352Z,15.03
2018-03-09T22:16:27.911Z,18.03
2018-03-09T22:18:55.617Z,22.00
2018-03-09T22:21:23.037Z,22.00
2018-03-09T22:23:50.568Z,16.00
2018-03-09T22:26:19.043Z,16.17
2018-03-09T22:28:47.354Z,19.10
2018-03-09T22:31:14.914Z,17.53
2018-03-09T22:33:44.112Z,18.20
2018-03-09T22:36:11.674Z,17.13
2018-03-09T22:38:39.203Z,19.67
2018-03-09T22:41:07.532Z,20.27
2018-03-09T22:43:35.068Z,17.03
2018-03-09T22:46:02.627Z,16.07
2018-03-09T22:48:30.158Z,18.33
2018-03-09T22:50:57.719Z,15.97
2018-03-09T22:53:25.255Z,15.37
2018-03-09T22:55:52.814Z,16.23
2018-03-09T22:58:20.362Z,22.77
2018-03-09T23:00:47.989Z,19.60
2018-03-09T23:03:15.743Z,19.47
2018-03-09T23:05:44.074Z,18.70
2018-03-09T23:08:11.610Z,19.63
2018-03-09T23:10:39.166Z,24.40
2018-03-09T23:13:06.728Z,19.53
2018-03-09T23:15:34.489Z,20.13
2018-03-09T23:18:02.020Z,17.90
2018-03-09T23:20:30.368Z,23.23
2018-03-09T23:22:57.981Z,24.60
2018-03-09T23:25:25.529Z,20.63
2018-03-09T23:27:53.067Z,21.33
2018-03-09T23:30:21.406Z,22.80
2018-03-09T23:32:49.721Z,20.83
2018-03-09T23:35:18.018Z,20.77
2018-03-09T23:37:46.336Z,18.00
2018-03-09T23:40:13.863Z,21.40
2018-03-09T23:42:41.418Z,20.00
2018-03-09T23:45:08.950Z,17.97
2018-03-09T23:47:36.511Z,19.20
2018-03-09T23:50:04.043Z,16.43
2018-03-09T23:52:31.598Z,19.33
2018-03-09T23:54:59.510Z,15.50
2018-03-09T23:57:27.826Z,15.83
2018-03-09T23:59:55.359Z,14.00
